Archival Weather

Snohomish County (Paine Fld)

Everett, Washington (KPAE)

Report from: Tuesday, November 14, 2023 11:53 PM PST
Current time: Monday, June 24, 2024 4:03 AM PDT

Current weather – Weather history – Daily summaries
Weather forecast

Temperature1.7°C (35.1°F)
Dew point0.0°C (32.0°F)
Winds Calm
Visibility10 mi. (16.1 km)
Clouds Sky clear
Altimeter29.97 in.Hg (1015 mB)
Relative humidity88 %
Density altitude-1,600 ft. (-488 m)
Sea-level pressure101.5 kPa (1015 mB, 29.98 in.Hg)
Max temp last 24 hours8.3°C (46.9°F)
Min temp last 24 hours0.6°C (33.1°F)
Remarks Fully automated report
Automated weather observing station with precipitation discriminator
Flight conditions Visual Meteorological Conditions
Raw dataKPAE 150753Z AUTO 00000KT 10SM CLR 02/00 A2997 RMK AO2 SLP154 T00170000 400830006
An error has occurred. This application may no longer respond until reloaded. Reload 🗙